createdAt,value
2022-08-14T00:00:22.128Z,12.65
2022-08-14T00:02:51.424Z,12.75
2022-08-14T00:05:22.555Z,11.60
2022-08-14T00:07:52.222Z,12.10
2022-08-14T00:10:51.799Z,12.30
2022-08-14T00:13:14.094Z,13.10
2022-08-14T00:15:48.060Z,13.50
2022-08-14T00:18:30.438Z,12.40
2022-08-14T00:21:11.400Z,12.43
2022-08-14T00:23:43.329Z,13.40
2022-08-14T00:26:21.812Z,12.55
2022-08-14T00:28:51.632Z,12.23
2022-08-14T00:31:35.053Z,12.07
2022-08-14T00:34:36.554Z,12.20
2022-08-14T00:36:59.324Z,12.93
2022-08-14T00:39:29.188Z,12.40
2022-08-14T00:41:58.686Z,12.82
2022-08-14T00:44:32.269Z,13.70
2022-08-14T00:47:02.512Z,14.32
2022-08-14T00:49:38.129Z,13.52
2022-08-14T00:52:14.189Z,12.98
2022-08-14T00:54:50.638Z,13.63
2022-08-14T00:57:20.469Z,13.52
2022-08-14T00:59:49.365Z,13.27
2022-08-14T01:02:24.848Z,12.95
2022-08-14T01:05:04.972Z,13.40
2022-08-14T01:07:47.166Z,13.00
2022-08-14T01:10:20.149Z,12.43
2022-08-14T01:12:49.417Z,12.63
2022-08-14T01:15:21.468Z,12.93
2022-08-14T01:18:27.497Z,12.93
2022-08-14T01:21:11.735Z,12.20
2022-08-14T01:23:47.242Z,11.90
2022-08-14T01:26:34.654Z,12.05
2022-08-14T01:29:10.948Z,12.82
2022-08-14T01:31:45.739Z,12.25
2022-08-14T01:35:17.851Z,12.90
2022-08-14T01:37:07.895Z,12.85
2022-08-14T01:39:40.761Z,12.90
2022-08-14T01:42:09.320Z,11.88
2022-08-14T01:44:58.597Z,12.45
2022-08-14T01:47:27.406Z,12.27
2022-08-14T01:50:06.787Z,12.05
2022-08-14T01:52:59.724Z,11.65
2022-08-14T01:55:32.225Z,12.60
2022-08-14T01:58:20.401Z,12.90
2022-08-14T02:00:55.009Z,12.77
2022-08-14T02:03:29.971Z,12.52
2022-08-14T02:05:59.996Z,12.98
2022-08-14T02:08:35.515Z,12.80
2022-08-14T02:11:33.588Z,13.85
2022-08-14T02:14:07.278Z,13.43
2022-08-14T02:16:41.592Z,13.13
2022-08-14T02:19:13.455Z,13.55
2022-08-14T02:21:48.887Z,13.18
2022-08-14T02:24:39.699Z,14.02
2022-08-14T02:28:25.728Z,13.77
2022-08-14T02:30:02.083Z,14.63
2022-08-14T02:32:37.220Z,15.40
2022-08-14T02:35:19.274Z,15.85
2022-08-14T02:37:50.918Z,15.88
2022-08-14T02:40:20.793Z,15.93
2022-08-14T02:43:03.691Z,15.18
2022-08-14T02:45:38.297Z,15.80
2022-08-14T02:49:01.761Z,14.88
2022-08-14T02:51:02.666Z,16.20
2022-08-14T02:53:33.431Z,15.38
2022-08-14T02:56:10.229Z,17.42
2022-08-14T02:58:56.502Z,14.77
2022-08-14T03:01:31.336Z,14.50
2022-08-14T03:04:13.135Z,14.60
2022-08-14T03:06:57.357Z,14.07
2022-08-14T03:10:24.355Z,13.60
2022-08-14T03:12:17.819Z,13.45
2022-08-14T03:14:57.028Z,14.10
2022-08-14T03:17:25.538Z,13.55
2022-08-14T03:19:53.759Z,13.82
2022-08-14T03:22:22.253Z,15.05
2022-08-14T03:24:50.714Z,14.73
2022-08-14T03:27:20.167Z,15.05
2022-08-14T03:29:49.709Z,12.95
2022-08-14T03:32:20.444Z,14.27
2022-08-14T03:34:58.743Z,14.25
2022-08-14T03:37:51.282Z,14.63
2022-08-14T03:40:18.264Z,14.10
2022-08-14T03:42:47.348Z,14.77
2022-08-14T03:45:19.483Z,15.15
2022-08-14T03:48:04.747Z,14.18
2022-08-14T03:50:39.737Z,16.95
2022-08-14T03:53:07.941Z,15.15
2022-08-14T03:55:36.651Z,17.38
2022-08-14T03:58:07.535Z,16.38
2022-08-14T04:00:43.396Z,16.88
2022-08-14T04:03:23.626Z,16.58
2022-08-14T04:05:53.505Z,16.98
2022-08-14T04:08:30.402Z,17.27
2022-08-14T04:11:02.103Z,16.80
2022-08-14T04:13:34.329Z,17.38
2022-08-14T04:16:05.376Z,16.95
2022-08-14T04:18:42.729Z,17.50
2022-08-14T04:21:11.301Z,17.45
2022-08-14T04:23:40.693Z,18.45
2022-08-14T04:26:14.921Z,17.83
2022-08-14T04:29:07.157Z,16.95
2022-08-14T04:33:00.016Z,17.83
2022-08-14T04:34:35.082Z,17.42
2022-08-14T04:37:24.729Z,18.88
2022-08-14T04:40:13.103Z,17.20
2022-08-14T04:43:17.404Z,17.08
2022-08-14T04:45:51.498Z,17.55
2022-08-14T04:48:31.601Z,17.20
2022-08-14T04:51:13.018Z,17.42
2022-08-14T04:53:44.628Z,18.30
2022-08-14T04:56:31.274Z,17.02
2022-08-14T04:59:10.630Z,17.55
2022-08-14T05:01:45.195Z,18.10
2022-08-14T05:04:20.242Z,17.23
2022-08-14T05:06:54.108Z,17.98
2022-08-14T05:09:24.729Z,17.95
2022-08-14T05:12:33.917Z,18.15
2022-08-14T05:14:55.247Z,18.42
2022-08-14T05:17:25.516Z,19.02
2022-08-14T05:21:04.910Z,18.30
2022-08-14T05:22:56.134Z,18.38
2022-08-14T05:25:24.972Z,19.08
2022-08-14T05:28:00.194Z,18.50
2022-08-14T05:30:28.986Z,18.73
2022-08-14T05:32:58.708Z,18.65
2022-08-14T05:35:27.092Z,19.15
2022-08-14T05:37:58.559Z,18.17
2022-08-14T05:40:27.031Z,18.73
2022-08-14T05:42:55.431Z,18.27
2022-08-14T05:45:25.098Z,17.95
2022-08-14T05:47:53.457Z,18.35
2022-08-14T05:50:22.381Z,17.38
2022-08-14T05:52:52.438Z,17.67
2022-08-14T05:55:23.570Z,17.58
2022-08-14T05:57:57.787Z,17.48
2022-08-14T06:00:37.026Z,18.92
2022-08-14T06:03:09.957Z,18.45
2022-08-14T06:05:40.021Z,19.00
2022-08-14T06:08:21.830Z,18.08
2022-08-14T06:11:09.306Z,17.58
2022-08-14T06:13:45.415Z,18.35
2022-08-14T06:16:18.733Z,17.70
2022-08-14T06:18:52.385Z,17.17
2022-08-14T06:21:22.537Z,17.02
2022-08-14T06:23:51.412Z,16.85
2022-08-14T06:26:22.174Z,18.00
2022-08-14T06:28:51.756Z,16.75
2022-08-14T06:31:21.333Z,17.30
2022-08-14T06:35:11.701Z,16.10
2022-08-14T06:36:39.805Z,16.35
2022-08-14T06:39:10.306Z,15.30
2022-08-14T06:41:57.987Z,15.07
2022-08-14T06:44:30.700Z,14.38
2022-08-14T06:47:02.916Z,13.52
2022-08-14T06:49:42.732Z,13.35
2022-08-14T06:52:15.399Z,12.35
2022-08-14T06:54:45.121Z,13.05
2022-08-14T06:57:15.069Z,12.57
2022-08-14T06:59:43.328Z,13.35
2022-08-14T07:02:29.536Z,12.93
2022-08-14T07:05:21.110Z,12.18
2022-08-14T07:07:52.979Z,11.57
2022-08-14T07:10:24.883Z,11.02
2022-08-14T07:13:03.625Z,12.13
2022-08-14T07:15:42.089Z,10.65
2022-08-14T07:18:12.145Z,10.63
2022-08-14T07:20:41.197Z,13.27
2022-08-14T07:23:20.551Z,10.32
2022-08-14T07:25:51.616Z,11.00
2022-08-14T07:28:26.557Z,11.07
2022-08-14T07:31:04.616Z,10.20
2022-08-14T07:33:41.922Z,11.80
2022-08-14T07:36:27.290Z,10.43
2022-08-14T07:38:59.505Z,11.43
2022-08-14T07:41:31.360Z,12.10
2022-08-14T07:44:33.084Z,12.57
2022-08-14T07:46:54.362Z,11.98
2022-08-14T07:49:24.482Z,11.00
2022-08-14T07:51:53.020Z,11.00
2022-08-14T07:54:23.181Z,12.23
2022-08-14T07:56:59.720Z,11.82
2022-08-14T07:59:42.320Z,11.05
2022-08-14T08:02:17.136Z,11.40
2022-08-14T08:04:53.099Z,11.48
2022-08-14T08:07:29.883Z,13.80
2022-08-14T08:10:02.340Z,11.15
2022-08-14T08:12:32.763Z,11.30
2022-08-14T08:15:07.567Z,12.15
2022-08-14T08:17:42.784Z,12.35
2022-08-14T08:20:26.288Z,11.57
2022-08-14T08:23:06.078Z,12.32
2022-08-14T08:25:39.860Z,14.63
2022-08-14T08:28:19.844Z,14.77
2022-08-14T08:30:56.385Z,14.27
2022-08-14T08:33:31.923Z,9.88
2022-08-14T08:36:03.510Z,10.48
2022-08-14T08:39:15.088Z,11.77
2022-08-14T08:41:20.221Z,10.77
2022-08-14T08:43:48.520Z,9.68
2022-08-14T08:46:24.052Z,10.10
2022-08-14T08:51:33.329Z,9.18
2022-08-14T08:54:05.142Z,14.20
2022-08-14T08:56:40.499Z,14.32
2022-08-14T08:59:21.507Z,9.38
2022-08-14T09:02:06.815Z,9.05
2022-08-14T09:04:45.434Z,10.90
2022-08-14T09:07:27.318Z,10.35
2022-08-14T09:09:58.596Z,9.45
2022-08-14T09:12:32.077Z,10.23
2022-08-14T09:15:03.389Z,11.75
2022-08-14T09:17:34.029Z,9.52
2022-08-14T09:20:04.263Z,10.10
2022-08-14T09:22:47.317Z,11.35
2022-08-14T09:25:19.700Z,12.88
2022-08-14T09:27:48.505Z,10.52
2022-08-14T09:30:32.659Z,9.48
2022-08-14T09:33:24.906Z,7.82
2022-08-14T09:36:18.583Z,9.82
2022-08-14T09:38:54.356Z,7.68
2022-08-14T09:42:20.473Z,9.00
2022-08-14T09:44:46.067Z,9.60
2022-08-14T09:47:18.710Z,7.90
2022-08-14T09:49:53.267Z,10.30
2022-08-14T09:52:33.771Z,8.52
2022-08-14T09:55:03.339Z,7.40
2022-08-14T09:57:32.410Z,9.05
2022-08-14T10:00:29.159Z,8.85
2022-08-14T10:03:05.147Z,9.35
2022-08-14T10:05:39.073Z,8.48
2022-08-14T10:08:25.423Z,9.90
2022-08-14T10:10:57.347Z,10.85
2022-08-14T10:13:37.197Z,10.63
2022-08-14T10:16:21.692Z,8.70
2022-08-14T10:19:07.270Z,10.63
2022-08-14T10:21:58.316Z,12.20
2022-08-14T10:24:36.667Z,9.88
2022-08-14T10:27:17.061Z,8.80
2022-08-14T10:29:49.554Z,9.05
2022-08-14T10:32:28.273Z,7.32
2022-08-14T10:35:13.672Z,11.57
2022-08-14T10:37:49.928Z,8.48
2022-08-14T10:40:43.787Z,8.20
2022-08-14T10:43:23.890Z,7.85
2022-08-14T10:46:22.083Z,8.10
2022-08-14T10:49:00.158Z,6.22
2022-08-14T10:51:34.067Z,8.15
2022-08-14T10:54:16.446Z,7.65
2022-08-14T10:56:58.863Z,6.45
2022-08-14T10:59:39.125Z,10.30
2022-08-14T11:02:45.203Z,7.72
2022-08-14T11:05:18.324Z,7.82
2022-08-14T11:08:00.268Z,10.65
2022-08-14T11:10:45.044Z,8.85
2022-08-14T11:13:19.789Z,6.85
2022-08-14T11:15:49.299Z,8.45
2022-08-14T11:18:20.145Z,10.30
2022-08-14T11:20:55.388Z,8.68
2022-08-14T11:23:37.920Z,7.15
2022-08-14T11:26:10.912Z,9.00
2022-08-14T11:28:47.542Z,8.02
2022-08-14T11:31:22.162Z,9.73
2022-08-14T11:33:58.486Z,6.30
2022-08-14T11:36:35.276Z,8.35
2022-08-14T11:39:34.016Z,9.10
2022-08-14T11:42:58.187Z,7.60
2022-08-14T11:45:01.514Z,6.05
2022-08-14T11:48:10.707Z,6.05
2022-08-14T11:50:36.846Z,5.88
2022-08-14T11:53:08.570Z,6.72
2022-08-14T11:55:40.049Z,6.68
2022-08-14T11:58:12.043Z,5.72
2022-08-14T12:00:53.586Z,4.97
2022-08-14T12:03:27.346Z,4.65
2022-08-14T12:06:29.640Z,4.85
2022-08-14T12:09:02.002Z,6.78
2022-08-14T12:11:44.336Z,5.28
2022-08-14T12:14:30.188Z,4.22
2022-08-14T12:17:12.558Z,6.13
2022-08-14T12:19:54.089Z,6.57
2022-08-14T12:22:37.248Z,5.00
2022-08-14T12:25:11.326Z,4.93
2022-08-14T12:27:53.972Z,5.68
2022-08-14T12:30:42.458Z,5.30
2022-08-14T12:33:30.461Z,6.10
2022-08-14T12:36:05.816Z,6.88
2022-08-14T12:38:38.162Z,7.22
2022-08-14T12:41:16.205Z,7.47
2022-08-14T12:43:53.472Z,8.27
2022-08-14T12:46:43.356Z,8.02
2022-08-14T12:49:16.628Z,8.52
2022-08-14T12:51:56.404Z,6.43
2022-08-14T12:54:27.429Z,7.43
2022-08-14T12:57:06.570Z,6.43
2022-08-14T12:59:42.703Z,5.97
2022-08-14T13:02:26.548Z,5.30
2022-08-14T13:04:56.747Z,7.40
2022-08-14T13:07:32.455Z,5.47
2022-08-14T13:10:46.202Z,9.65
2022-08-14T13:13:12.656Z,6.32
2022-08-14T13:15:45.246Z,5.88
2022-08-14T13:18:17.206Z,5.90
2022-08-14T13:20:51.517Z,6.40
2022-08-14T13:23:31.943Z,5.65
2022-08-14T13:26:02.863Z,8.32
2022-08-14T13:28:34.089Z,4.80
2022-08-14T13:31:09.070Z,8.15
2022-08-14T13:33:42.181Z,4.97
2022-08-14T13:36:24.410Z,5.40
2022-08-14T13:39:00.720Z,6.80
2022-08-14T13:41:34.588Z,5.60
2022-08-14T13:44:07.902Z,4.88
2022-08-14T13:46:44.401Z,6.50
2022-08-14T13:49:16.119Z,5.72
2022-08-14T13:51:50.636Z,5.25
2022-08-14T13:54:22.655Z,5.82
2022-08-14T13:56:51.401Z,5.95
2022-08-14T13:59:20.698Z,5.57
2022-08-14T14:02:09.754Z,7.03
2022-08-14T14:04:46.239Z,5.50
2022-08-14T14:07:23.603Z,4.95
2022-08-14T14:09:56.606Z,6.10
2022-08-14T14:12:38.162Z,5.93
2022-08-14T14:15:13.765Z,9.23
2022-08-14T14:17:44.117Z,5.72
2022-08-14T14:20:35.589Z,6.47
2022-08-14T14:23:11.553Z,6.40
2022-08-14T14:25:51.487Z,7.30
2022-08-14T14:28:32.166Z,7.18
2022-08-14T14:31:06.829Z,8.15
2022-08-14T14:33:47.569Z,8.27
2022-08-14T14:36:25.003Z,6.53
2022-08-14T14:38:56.304Z,10.55
2022-08-14T14:41:27.223Z,7.03
2022-08-14T14:44:08.938Z,9.00
2022-08-14T14:46:41.531Z,6.88
2022-08-14T14:49:14.629Z,6.03
2022-08-14T14:51:51.368Z,7.63
2022-08-14T14:54:31.982Z,7.95
2022-08-14T14:57:09.124Z,9.35
2022-08-14T14:59:38.671Z,8.20
2022-08-14T15:02:09.713Z,6.70
2022-08-14T15:04:43.663Z,6.55
2022-08-14T15:07:16.287Z,7.85
2022-08-14T15:09:45.417Z,6.75
2022-08-14T15:12:52.154Z,6.00
2022-08-14T15:15:08.574Z,9.15
2022-08-14T15:17:41.111Z,7.10
2022-08-14T15:20:17.411Z,7.03
2022-08-14T15:22:51.202Z,7.07
2022-08-14T15:25:19.989Z,6.25
2022-08-14T15:27:54.595Z,5.25
2022-08-14T15:30:32.064Z,8.65
2022-08-14T15:33:01.086Z,5.72
2022-08-14T15:35:34.265Z,6.22
2022-08-14T15:38:08.004Z,6.60
2022-08-14T15:40:41.130Z,8.40
2022-08-14T15:43:12.987Z,6.28
2022-08-14T15:45:42.790Z,5.80
2022-08-14T15:48:18.426Z,6.22
2022-08-14T15:50:51.700Z,6.70
2022-08-14T15:53:23.360Z,6.20
2022-08-14T15:55:53.103Z,8.57
2022-08-14T15:58:22.326Z,9.68
2022-08-14T16:01:08.006Z,7.28
2022-08-14T16:03:39.888Z,8.07
2022-08-14T16:06:15.647Z,8.73
2022-08-14T16:08:57.701Z,6.75
2022-08-14T16:11:32.931Z,8.57
2022-08-14T16:14:01.772Z,9.27
2022-08-14T16:16:48.170Z,7.95
2022-08-14T16:19:23.592Z,7.90
2022-08-14T16:22:02.666Z,7.20
2022-08-14T16:24:59.789Z,8.05
2022-08-14T16:27:34.103Z,6.85
2022-08-14T16:30:24.591Z,7.25
2022-08-14T16:32:57.685Z,6.72
2022-08-14T16:35:43.409Z,6.38
2022-08-14T16:38:19.610Z,7.47
2022-08-14T16:41:34.904Z,6.75
2022-08-14T16:44:06.321Z,5.97
2022-08-14T16:46:57.119Z,6.30
2022-08-14T16:50:02.516Z,6.22
2022-08-14T16:52:25.666Z,7.00
2022-08-14T16:55:06.193Z,6.85
2022-08-14T16:57:50.083Z,6.50
2022-08-14T17:00:43.627Z,8.02
2022-08-14T17:03:14.684Z,7.05
2022-08-14T17:05:46.823Z,6.40
2022-08-14T17:08:32.427Z,7.18
2022-08-14T17:11:11.031Z,7.90
2022-08-14T17:13:57.785Z,8.02
2022-08-14T17:16:35.954Z,7.30
2022-08-14T17:19:13.383Z,6.80
2022-08-14T17:21:47.096Z,8.30
2022-08-14T17:24:57.848Z,6.93
2022-08-14T17:27:08.948Z,7.65
2022-08-14T17:29:44.955Z,10.40
2022-08-14T17:32:29.868Z,7.22
2022-08-14T17:35:16.921Z,7.18
2022-08-14T17:37:55.569Z,9.70
2022-08-14T17:40:30.835Z,8.00
2022-08-14T17:43:02.325Z,10.07
2022-08-14T17:45:47.045Z,8.55
2022-08-14T17:49:13.998Z,9.40
2022-08-14T17:51:24.134Z,8.88
2022-08-14T17:54:02.573Z,7.50
2022-08-14T17:56:34.385Z,8.45
2022-08-14T17:59:07.379Z,10.55
2022-08-14T18:01:46.337Z,8.23
2022-08-14T18:04:27.933Z,8.48
2022-08-14T18:07:16.405Z,7.55
2022-08-14T18:09:57.439Z,8.82
2022-08-14T18:12:37.004Z,8.13
2022-08-14T18:15:16.719Z,8.32
2022-08-14T18:17:53.240Z,7.85
2022-08-14T18:21:23.905Z,12.35
2022-08-14T18:23:14.763Z,10.45
2022-08-14T18:25:50.384Z,9.55
2022-08-14T18:28:51.354Z,8.52
2022-08-14T18:31:45.538Z,6.72
2022-08-14T18:34:30.627Z,9.52
2022-08-14T18:37:09.564Z,8.02
2022-08-14T18:40:03.027Z,10.43
2022-08-14T18:42:46.127Z,7.25
2022-08-14T18:45:19.079Z,8.00
2022-08-14T18:48:28.793Z,8.32
2022-08-14T18:51:45.208Z,9.43
2022-08-14T18:54:29.835Z,8.13
2022-08-14T18:57:05.401Z,8.38
2022-08-14T18:59:39.237Z,8.40
2022-08-14T19:02:43.415Z,9.15
2022-08-14T19:05:12.390Z,10.27
2022-08-14T19:07:48.276Z,8.57
2022-08-14T19:10:37.305Z,9.25
2022-08-14T19:13:12.123Z,11.15
2022-08-14T19:15:44.540Z,9.55
2022-08-14T19:18:28.457Z,9.68
2022-08-14T19:21:00.950Z,10.65
2022-08-14T19:23:42.942Z,9.18
2022-08-14T19:26:36.708Z,10.45
2022-08-14T19:29:37.458Z,12.05
2022-08-14T19:32:39.655Z,10.85
2022-08-14T19:35:49.855Z,11.70
2022-08-14T19:39:02.021Z,8.95
2022-08-14T19:41:36.190Z,9.50
2022-08-14T19:44:11.589Z,9.30
2022-08-14T19:46:59.810Z,9.48
2022-08-14T19:50:07.976Z,10.90
2022-08-14T19:52:30.079Z,10.15
2022-08-14T19:55:01.655Z,9.73
2022-08-14T19:57:32.468Z,9.52
2022-08-14T20:00:28.255Z,9.27
2022-08-14T20:03:10.754Z,10.07
2022-08-14T20:05:45.862Z,11.13
2022-08-14T20:11:02.481Z,9.52
2022-08-14T20:11:20.728Z,10.05
2022-08-14T20:14:10.385Z,10.25
2022-08-14T20:16:42.752Z,12.15
2022-08-14T20:19:24.654Z,12.18
2022-08-14T20:22:35.366Z,11.90
2022-08-14T20:24:47.699Z,10.95
2022-08-14T20:27:40.057Z,10.50
2022-08-14T20:30:35.932Z,11.95
2022-08-14T20:33:11.142Z,9.95
2022-08-14T20:35:44.380Z,11.00
2022-08-14T20:38:30.501Z,11.32
2022-08-14T20:41:06.544Z,11.00
2022-08-14T20:44:34.275Z,11.60
2022-08-14T20:47:04.662Z,11.80
2022-08-14T20:49:37.363Z,10.25
2022-08-14T20:52:20.066Z,10.90
2022-08-14T20:54:55.165Z,12.00
2022-08-14T20:57:43.938Z,10.35
2022-08-14T21:00:38.929Z,11.55
2022-08-14T21:04:19.447Z,11.13
2022-08-14T21:07:22.917Z,10.73
2022-08-14T21:10:35.771Z,13.80
2022-08-14T21:13:26.685Z,11.93
2022-08-14T21:15:57.859Z,11.77
2022-08-14T21:18:47.537Z,11.82
2022-08-14T21:21:26.411Z,13.13
2022-08-14T21:24:38.691Z,11.63
2022-08-14T21:27:12.771Z,12.52
2022-08-14T21:29:55.967Z,11.50
2022-08-14T21:32:46.998Z,13.23
2022-08-14T21:35:24.660Z,11.88
2022-08-14T21:37:55.528Z,12.80
2022-08-14T21:40:41.714Z,15.93
2022-08-14T21:43:17.562Z,12.75
2022-08-14T21:45:54.071Z,13.25
2022-08-14T21:48:26.333Z,11.98
2022-08-14T21:51:01.378Z,13.57
2022-08-14T21:53:58.236Z,13.48
2022-08-14T21:56:57.016Z,13.50
2022-08-14T21:59:29.541Z,14.45
2022-08-14T22:02:32.225Z,14.68
2022-08-14T22:05:03.482Z,14.07
2022-08-14T22:07:34.219Z,13.50
2022-08-14T22:10:07.506Z,13.73
2022-08-14T22:12:58.809Z,13.60
2022-08-14T22:15:33.452Z,13.48
2022-08-14T22:18:04.759Z,13.40
2022-08-14T22:20:42.191Z,14.23
2022-08-14T22:23:13.618Z,13.13
2022-08-14T22:25:50.460Z,14.27
2022-08-14T22:28:32.634Z,14.27
2022-08-14T22:31:10.250Z,14.68
2022-08-14T22:33:42.901Z,14.65
2022-08-14T22:36:26.423Z,16.00
2022-08-14T22:38:55.203Z,15.18
2022-08-14T22:41:31.487Z,17.92
2022-08-14T22:44:10.931Z,17.02
2022-08-14T22:46:43.455Z,17.27
2022-08-14T22:49:16.659Z,17.10
2022-08-14T22:52:02.702Z,17.45
2022-08-14T22:54:52.612Z,17.15
2022-08-14T22:57:23.685Z,17.50
2022-08-14T22:59:52.361Z,16.77
2022-08-14T23:02:30.460Z,16.50
2022-08-14T23:05:04.560Z,17.77
2022-08-14T23:08:59.554Z,17.58
2022-08-14T23:10:31.661Z,17.02
2022-08-14T23:13:06.714Z,18.23
2022-08-14T23:15:37.615Z,17.38
2022-08-14T23:18:07.378Z,17.95
2022-08-14T23:20:42.444Z,18.63
2022-08-14T23:23:22.556Z,18.80
2022-08-14T23:25:59.071Z,19.23
2022-08-14T23:28:56.602Z,19.70
2022-08-14T23:31:34.951Z,20.67
2022-08-14T23:34:06.661Z,22.58
2022-08-14T23:36:37.909Z,20.00
2022-08-14T23:39:24.642Z,18.30
2022-08-14T23:42:02.485Z,14.98
2022-08-14T23:44:36.891Z,14.98
2022-08-14T23:47:11.746Z,13.57
2022-08-14T23:50:00.016Z,12.82
2022-08-14T23:52:50.677Z,12.52
2022-08-14T23:55:19.639Z,12.93
2022-08-14T23:57:58.035Z,11.82
